Terminal Aerodrome Forecast
Issued by NWS Charleston, WV

Home | Current Version | Previous Version | Text Only | Print | Product List | Glossary On
Versions: 1 2 3 4 5 6 7 8 9 10 11 12 13 14 15 16 17 18 19 20
000
FTUS41 KRLX 282344
TAFPKB
TAF
KPKB 282344Z 2900/2924 00000KT P6SM SCT250
     FM290800 00000KT 3SM BR SCT250
     FM291000 00000KT 1/2SM FG VV001
     FM291300 00000KT 3SM BR SCT002
     FM291400 00000KT P6SM SCT060=

USA.gov is the U.S. government's official web portal to all federal, state and local government web resources and services.